createdAt,value
2019-01-06T00:00:29.956Z,98.68
2019-01-06T00:06:24.916Z,98.68
2019-01-06T00:12:06.132Z,99.04
2019-01-06T00:17:49.281Z,99.33
2019-01-06T00:23:31.306Z,99.34
2019-01-06T00:29:26.309Z,98.76
2019-01-06T00:35:14.745Z,98.91
2019-01-06T00:40:44.541Z,99.20
2019-01-06T00:46:32.475Z,99.00
2019-01-06T00:52:16.812Z,98.88
2019-01-06T00:57:56.296Z,98.62
2019-01-06T01:03:45.417Z,98.62
2019-01-06T01:09:52.081Z,98.79
2019-01-06T01:15:43.377Z,98.14
2019-01-06T01:21:21.004Z,98.61
2019-01-06T01:27:08.927Z,98.92
2019-01-06T01:32:54.074Z,99.10
2019-01-06T01:38:41.706Z,98.88
2019-01-06T01:44:19.552Z,99.04
2019-01-06T01:49:51.442Z,98.96
2019-01-06T01:55:49.122Z,98.58
2019-01-06T02:01:34.241Z,98.62
2019-01-06T02:07:13.586Z,98.78
2019-01-06T02:12:52.932Z,98.82
2019-01-06T02:18:41.133Z,99.16
2019-01-06T02:24:35.688Z,99.16
2019-01-06T02:30:14.388Z,98.86
2019-01-06T02:36:09.012Z,98.59
2019-01-06T02:41:54.819Z,98.92
2019-01-06T02:47:32.332Z,98.73
2019-01-06T02:53:20.560Z,98.51
2019-01-06T02:59:00.795Z,98.75
2019-01-06T03:04:38.843Z,98.90
2019-01-06T03:10:24.362Z,98.51
2019-01-06T03:16:03.914Z,98.57
2019-01-06T03:21:46.482Z,98.65
2019-01-06T03:27:18.495Z,98.74
2019-01-06T03:33:03.637Z,99.00
2019-01-06T03:38:40.591Z,99.00
2019-01-06T03:44:31.744Z,98.82
2019-01-06T03:50:11.046Z,98.47
2019-01-06T03:55:48.355Z,98.95
2019-01-06T04:01:21.594Z,98.59
2019-01-06T04:06:59.559Z,98.72
2019-01-06T04:12:42.152Z,98.68
2019-01-06T04:18:21.406Z,98.51
2019-01-06T04:23:59.159Z,98.77
2019-01-06T04:29:36.963Z,98.59
2019-01-06T04:35:15.765Z,98.82
2019-01-06T04:40:53.382Z,98.75
2019-01-06T04:46:33.004Z,98.87
2019-01-06T04:52:10.449Z,99.26
2019-01-06T04:57:56.454Z,99.01
2019-01-06T05:03:38.684Z,98.96
2019-01-06T05:09:16.616Z,98.89
2019-01-06T05:14:58.989Z,98.84
2019-01-06T05:20:37.178Z,98.93
2019-01-06T05:26:14.787Z,98.68
2019-01-06T05:31:52.350Z,98.68
2019-01-06T05:37:31.411Z,98.67
2019-01-06T05:43:25.544Z,98.50
2019-01-06T05:49:15.253Z,98.66
2019-01-06T05:55:00.094Z,98.82
2019-01-06T06:00:49.922Z,98.82
2019-01-06T06:06:32.282Z,99.43
2019-01-06T06:12:11.200Z,99.43
2019-01-06T06:17:50.421Z,98.61
2019-01-06T06:23:41.742Z,99.06
2019-01-06T06:29:09.934Z,99.03
2019-01-06T06:35:05.143Z,99.09
2019-01-06T06:40:42.896Z,98.99
2019-01-06T06:46:31.287Z,99.29
2019-01-06T06:52:10.667Z,99.29
2019-01-06T06:58:30.417Z,99.06
2019-01-06T07:04:08.497Z,99.09
2019-01-06T07:09:59.820Z,99.09
2019-01-06T07:15:37.557Z,99.14
2019-01-06T07:21:33.305Z,99.19
2019-01-06T07:27:10.723Z,99.19
2019-01-06T07:32:50.343Z,98.73
2019-01-06T07:38:35.957Z,98.42
2019-01-06T07:44:18.526Z,98.28
2019-01-06T07:50:00.740Z,98.03
2019-01-06T07:55:38.004Z,97.86
2019-01-06T08:01:17.186Z,97.98
2019-01-06T08:06:51.764Z,97.95
2019-01-06T08:12:36.876Z,97.73
2019-01-06T08:18:13.964Z,97.76
2019-01-06T08:24:04.884Z,98.40
2019-01-06T08:29:43.643Z,96.67
2019-01-06T08:35:21.404Z,97.20
2019-01-06T08:47:50.494Z,97.22
2019-01-06T08:53:00.042Z,97.43
2019-01-06T08:58:54.225Z,96.77
2019-01-06T09:04:34.468Z,92.20
2019-01-06T09:10:05.935Z,92.20
2019-01-06T09:15:44.291Z,94.75
2019-01-06T09:21:19.230Z,92.94
2019-01-06T09:27:10.377Z,93.92
2019-01-06T09:33:05.193Z,95.18
2019-01-06T09:38:42.448Z,93.03
2019-01-06T09:44:33.738Z,94.33
2019-01-06T09:50:28.502Z,92.52
2019-01-06T09:55:55.798Z,94.34
2019-01-06T10:01:46.902Z,94.36
2019-01-06T10:07:22.514Z,94.35
2019-01-06T10:13:24.200Z,92.52
2019-01-06T10:18:55.105Z,92.15
2019-01-06T10:24:37.864Z,91.67
2019-01-06T10:30:23.001Z,91.67
2019-01-06T10:36:07.263Z,90.10
2019-01-06T10:41:47.064Z,86.97
2019-01-06T10:47:33.247Z,90.92
2019-01-06T10:53:10.639Z,90.92
2019-01-06T10:59:01.531Z,92.60
2019-01-06T11:04:39.321Z,89.69
2019-01-06T11:10:24.879Z,89.67
2019-01-06T11:16:04.876Z,89.55
2019-01-06T11:21:46.443Z,89.04
2019-01-06T11:27:23.931Z,90.26
2019-01-06T11:33:11.991Z,90.26
2019-01-06T11:38:55.345Z,89.63
2019-01-06T11:44:41.877Z,89.52
2019-01-06T11:50:21.597Z,89.41
2019-01-06T11:55:54.222Z,87.76
2019-01-06T12:01:32.178Z,88.36
2019-01-06T12:07:09.873Z,88.90
2019-01-06T12:12:47.818Z,88.41
2019-01-06T12:18:26.149Z,86.76
2019-01-06T12:23:58.298Z,86.76
2019-01-06T12:29:43.337Z,87.28
2019-01-06T12:35:40.304Z,85.94
2019-01-06T12:41:29.022Z,85.53
2019-01-06T12:47:08.066Z,85.27
2019-01-06T12:52:47.511Z,87.01
2019-01-06T12:58:29.527Z,86.13
2019-01-06T13:04:14.840Z,87.92
2019-01-06T13:10:08.552Z,87.30
2019-01-06T13:15:45.995Z,87.30
2019-01-06T13:21:25.644Z,86.31
2019-01-06T13:27:20.615Z,86.31
2019-01-06T13:32:59.206Z,87.34
2019-01-06T13:38:57.538Z,86.93
2019-01-06T13:44:50.522Z,86.75
2019-01-06T13:50:31.571Z,86.75
2019-01-06T13:56:16.473Z,85.94
2019-01-06T14:02:01.332Z,86.61
2019-01-06T14:08:00.618Z,87.87
2019-01-06T14:13:34.616Z,87.10
2019-01-06T14:19:16.038Z,86.92
2019-01-06T14:24:54.723Z,87.13
2019-01-06T14:30:43.261Z,87.13
2019-01-06T14:36:21.806Z,88.66
2019-01-06T14:42:03.744Z,88.07
2019-01-06T14:47:40.665Z,87.67
2019-01-06T14:53:24.200Z,84.69
2019-01-06T14:59:22.210Z,84.69
2019-01-06T15:05:06.998Z,88.33
2019-01-06T15:10:51.523Z,88.33
2019-01-06T15:16:27.982Z,86.53
2019-01-06T15:22:18.968Z,88.09
2019-01-06T15:27:57.024Z,86.20
2019-01-06T15:33:44.274Z,86.57
2019-01-06T15:39:24.607Z,87.77
2019-01-06T15:45:08.539Z,87.44
2019-01-06T15:50:59.005Z,87.75
2019-01-06T15:56:35.713Z,87.71
2019-01-06T16:02:16.754Z,87.71
2019-01-06T16:08:11.273Z,87.98
2019-01-06T16:14:06.055Z,87.98
2019-01-06T16:19:43.713Z,87.14
2019-01-06T16:25:26.566Z,89.20
2019-01-06T16:31:05.018Z,89.20
2019-01-06T16:36:46.756Z,89.82
2019-01-06T16:42:29.012Z,89.82
2019-01-06T16:48:18.143Z,89.25
2019-01-06T16:53:54.184Z,89.41
2019-01-06T16:59:51.069Z,88.41
2019-01-06T17:05:42.728Z,88.98
2019-01-06T17:11:31.691Z,89.76
2019-01-06T17:17:11.103Z,89.76
2019-01-06T17:22:48.912Z,89.49
2019-01-06T17:28:40.301Z,89.26
2019-01-06T17:34:20.004Z,89.26
2019-01-06T17:39:58.818Z,87.03
2019-01-06T17:45:39.950Z,87.03
2019-01-06T17:51:27.831Z,88.24
2019-01-06T17:57:10.289Z,89.17
2019-01-06T18:02:48.090Z,89.17
2019-01-06T18:08:26.748Z,88.49
2019-01-06T18:14:05.151Z,87.01
2019-01-06T18:19:43.103Z,88.95
2019-01-06T18:25:34.661Z,88.21
2019-01-06T18:31:14.607Z,88.96
2019-01-06T18:36:55.152Z,88.30
2019-01-06T18:42:41.279Z,90.06
2019-01-06T18:48:29.825Z,90.06
2019-01-06T18:54:07.689Z,88.12
2019-01-06T18:59:46.627Z,89.00
2019-01-06T19:05:25.003Z,89.45
2019-01-06T19:11:14.113Z,89.45
2019-01-06T19:16:56.481Z,90.27
2019-01-06T19:22:36.963Z,90.45
2019-01-06T19:28:14.785Z,90.45
2019-01-06T19:33:52.635Z,90.53
2019-01-06T19:39:30.603Z,90.29
2019-01-06T19:45:10.822Z,90.55
2019-01-06T19:50:49.638Z,90.50
2019-01-06T19:56:33.019Z,90.96
2019-01-06T20:02:09.564Z,91.19
2019-01-06T20:08:02.032Z,90.99
2019-01-06T20:13:39.802Z,91.52
2019-01-06T20:19:17.969Z,91.93
2019-01-06T20:25:00.463Z,91.93
2019-01-06T20:30:49.071Z,91.62
2019-01-06T20:36:41.053Z,91.61
2019-01-06T20:42:26.584Z,92.58
2019-01-06T20:48:18.127Z,92.73
2019-01-06T20:53:56.029Z,92.73
2019-01-06T20:59:33.695Z,93.00
2019-01-06T21:05:13.318Z,93.00
2019-01-06T21:10:51.745Z,93.26
2019-01-06T21:16:31.390Z,93.41
2019-01-06T21:22:24.490Z,93.41
2019-01-06T21:28:10.669Z,92.75
2019-01-06T21:33:50.435Z,93.04
2019-01-06T21:39:29.502Z,93.15
2019-01-06T21:45:05.072Z,92.74
2019-01-06T21:50:59.519Z,92.94
2019-01-06T21:56:38.006Z,93.50
2019-01-06T22:02:32.187Z,93.41
2019-01-06T22:08:11.819Z,93.65
2019-01-06T22:13:51.408Z,93.65
2019-01-06T22:19:36.062Z,93.82
2019-01-06T22:25:07.367Z,94.19
2019-01-06T22:30:56.971Z,94.19
2019-01-06T22:36:54.403Z,93.32
2019-01-06T22:42:42.306Z,93.65
2019-01-06T22:48:20.369Z,93.45
2019-01-06T22:53:58.389Z,92.73
2019-01-06T22:59:42.697Z,92.73
2019-01-06T23:05:15.443Z,93.20
2019-01-06T23:10:54.043Z,93.04
2019-01-06T23:16:33.584Z,93.19
2019-01-06T23:22:08.326Z,93.35
2019-01-06T23:27:46.776Z,93.46
2019-01-06T23:33:32.362Z,93.49
2019-01-06T23:39:11.786Z,93.52
2019-01-06T23:44:49.582Z,93.65
2019-01-06T23:50:27.346Z,93.73
2019-01-06T23:56:05.044Z,93.86
